This demonstration page uses our WeatherBlox Daily Observations layout. Learn more.

39.92423, -83.80882

Hourly Observations for September 16, 2019

Temp ( °F °C ) Dew Point ( °F °C ) Humidity (%) Winds ( mph kmh ) Pressure ( in mb ) Visibility ( mi km ) Precip ( " mm )
12:56 am 00:56 Cloudy 72 22.2 59 15 64 64 S 7 11 30.06 1018 10 16.09344 0 0
1:56 am 01:56 Cloudy 72 22.2 59 15 64 64 SSW 5 7 30.03 1017 10 16.09344 0 0
2:56 am 02:56 Mostly Cloudy 69 20.6 60 15.6 73 73 SW 5 7 30.03 1017 10 16.09344 0 0
3:56 am 03:56 Mostly Cloudy 69 20.6 60 15.6 73 73 SW 6 9 30.03 1017 10 16.09344 0 0
4:56 am 04:56 Partly Cloudy 68 20 60 15.6 76 76 SW 6 9 30.03 1017 10 16.09344 0 0
5:56 am 05:56 Mostly Clear 68 20 59 15 73 73 SW 7 11 30.03 1017 10 16.09344 0 0
6:56 am 06:56 Partly Cloudy 66 18.9 59 15 78 78 SW 5 7 30.06 1018 10 16.09344 0 0
7:56 am 07:56 Cloudy 67 19.4 61 16.1 81 81 Calm 30.06 1018 10 16.09344 0 0
8:56 am 08:56 Mostly Sunny 71 21.7 61 16.1 71 71 Calm 30.06 1018 10 16.09344 0 0
9:56 am 09:56 Sunny 77 25 61 16.1 58 58 WNW 7 11 30.06 1018 10 16.09344 0 0
12:56 pm 12:56 Partly Cloudy 85 29.4 69 20.6 59 59 N 12 19 30.06 1018 10 16.09344 0 0
1:56 pm 13:56 Partly Cloudy 85 29.4 68 20 57 57 N 10 17 30.03 1017 10 16.09344 0 0
2:56 pm 14:56 Partly Cloudy 87 30.6 68 20 53 53 N 12 19 30.03 1017 10 16.09344 0 0
3:56 pm 15:56 Sunny 85 29.4 67 19.4 55 55 NW 8 13 30 1016 10 16.09344 0 0
4:56 pm 16:56 Mostly Cloudy 87 30.6 66 18.9 50 50 undefined N/A 30 1016 10 16.09344 0 0
5:56 pm 17:56 Sunny 84 28.9 65 18.3 53 53 NNW 9 15 30 1016 10 16.09344 0 0
6:56 pm 18:56 Sunny 81 27.2 66 18.9 61 61 NNW 8 13 30 1016 10 16.09344 0 0
7:56 pm 19:56 Clear 75 23.9 65 18.3 71 71 N 6 9 30.03 1017 10 16.09344 0 0
8:56 pm 20:56 Clear 73 22.8 65 18.3 76 76 N 6 9 30.03 1017 7 11.265408 0 0
9:56 pm 21:56 Clear 74 23.3 65 18.3 74 74 NNE 9 15 30.03 1017 10 16.09344 0 0
10:56 pm 22:56 Clear 71 21.7 65 18.3 81 81 NE 8 13 30.06 1018 10 16.09344 0 0
11:56 pm 23:56 Clear 67 19.4 65 18.3 93 93 ENE 8 13 30.06 1018 10 16.09344 0 0

Powered by AerisWeather